Time;durP1;ratioP1;P1;durP2;ratioP2;P2;SDS_P1;SDS_P2;PMS_P1;PMS_P2;Temp;Humidity;BMP_temperature;BMP_pressure;BME280_temperature;BME280_humidity;BME280_pressure;Samples;Min_cycle;Max_cycle;Signal;HPM_P1;HPM_P2
2023/05/12 00:01:15;;;;;;;6.32;1.95;;;;;;;;;;4934156;29;20103;-63
2023/05/12 00:03:45;;;;;;;6.72;2.60;;;;;;;;;;4934048;29;20392;-62
2023/05/12 00:06:17;;;;;;;6.28;1.98;;;;;;;;;;4934541;29;20534;-62
2023/05/12 00:08:47;;;;;;;5.63;2.22;;;;;;;;;;4930005;29;20408;-63
2023/05/12 00:11:18;;;;;;;4.30;2.50;;;;;;;;;;4972586;28;20058;-63
2023/05/12 00:13:48;;;;;;;4.78;2.40;;;;;;;;;;4941132;28;20519;-62
2023/05/12 00:16:19;;;;;;;5.32;2.72;;;;;;;;;;4970556;28;20507;-63
2023/05/12 00:18:51;;;;;;;6.53;2.58;;;;;;;;;;4956232;28;20054;-62
2023/05/12 00:21:22;;;;;;;7.65;2.03;;;;;;;;;;4948133;28;20047;-63
2023/05/12 00:23:52;;;;;;;4.30;2.13;;;;;;;;;;4938825;28;20054;-63
2023/05/12 00:26:24;;;;;;;7.47;2.40;;;;;;;;;;4939962;28;20042;-62
2023/05/12 00:28:59;;;;;;;7.28;2.13;;;;;;;;;;4949084;28;20519;-62
2023/05/12 00:31:31;;;;;;;7.60;2.53;;;;;;;;;;4971483;28;20059;-62
2023/05/12 00:34:02;;;;;;;7.25;2.72;;;;;;;;;;4964005;28;20057;-62
2023/05/12 00:36:33;;;;;;;9.05;2.55;;;;;;;;;;4971985;28;20056;-62
2023/05/12 00:39:07;;;;;;;6.40;2.55;;;;;;;;;;4937479;28;20062;-62
2023/05/12 00:41:38;;;;;;;5.28;2.20;;;;;;;;;;4972073;28;20059;-63
2023/05/12 00:44:09;;;;;;;5.35;2.30;;;;;;;;;;4920669;29;20051;-63
2023/05/12 00:46:39;;;;;;;5.05;2.28;;;;;;;;;;4952800;29;20551;-62
2023/05/12 00:49:12;;;;;;;5.75;2.45;;;;;;;;;;4901847;29;20051;-62
2023/05/12 00:51:43;;;;;;;7.38;2.42;;;;;;;;;;4920339;29;20055;-62
2023/05/12 00:54:13;;;;;;;4.47;2.47;;;;;;;;;;4874976;29;20056;-62
2023/05/12 00:56:44;;;;;;;5.30;2.53;;;;;;;;;;4914153;29;20060;-63
2023/05/12 00:59:14;;;;;;;6.63;2.60;;;;;;;;;;4882714;29;20056;-64
2023/05/12 01:01:47;;;;;;;5.75;2.60;;;;;;;;;;4914411;29;20060;-63
2023/05/12 01:04:18;;;;;;;5.45;3.00;;;;;;;;;;4913447;29;20576;-61
2023/05/12 01:06:54;;;;;;;8.27;2.53;;;;;;;;;;4864389;29;20425;-62
2023/05/12 01:09:25;;;;;;;7.68;2.70;;;;;;;;;;4894629;29;20579;-63
2023/05/12 01:11:56;;;;;;;;;;;;;;;;;;4894917;29;20061;-63
2023/05/12 01:14:27;;;;;;;8.35;2.90;;;;;;;;;;4895050;29;19924;-62
2023/05/12 01:17:02;;;;;;;9.23;2.92;;;;;;;;;;4884021;29;20694;-62
2023/05/12 01:19:48;;;;;;;6.95;2.65;;;;;;;;;;4845380;29;20053;-63
2023/05/12 01:22:19;;;;;;;5.50;2.45;;;;;;;;;;4908323;29;20168;-63
2023/05/12 01:24:54;;;;;;;5.75;2.53;;;;;;;;;;4882707;29;20048;-64
2023/05/12 01:27:28;;;;;;;7.80;3.10;;;;;;;;;;4894843;29;20052;-63
2023/05/12 01:30:03;;;;;;;6.05;3.10;;;;;;;;;;4908891;29;20099;-64
2023/05/12 01:32:37;;;;;;;6.68;2.50;;;;;;;;;;4928350;29;20089;-63
2023/05/12 01:35:08;;;;;;;7.80;2.70;;;;;;;;;;4913346;29;20083;-64
2023/05/12 01:37:46;;;;;;;5.95;2.63;;;;;;;;;;4917396;29;20056;-63
2023/05/12 01:40:16;;;;;;;6.13;2.70;;;;;;;;;;4917065;29;20060;-64
2023/05/12 01:42:49;;;;;;;4.43;2.50;;;;;;;;;;4928186;29;20071;-63
2023/05/12 01:45:19;;;;;;;8.30;2.80;;;;;;;;;;4897272;29;20059;-63
2023/05/12 01:47:52;;;;;;;7.25;2.58;;;;;;;;;;4932011;29;20059;-63
2023/05/12 01:50:23;;;;;;;8.82;2.75;;;;;;;;;;4894047;29;20056;-63
2023/05/12 01:52:53;;;;;;;7.63;2.78;;;;;;;;;;4894231;29;20568;-63
2023/05/12 01:55:24;;;;;;;7.60;3.22;;;;;;;;;;4826761;29;20050;-63
2023/05/12 01:57:57;;;;;;;7.95;3.08;;;;;;;;;;4856894;29;20065;-63
2023/05/12 02:00:27;;;;;;;6.57;3.08;;;;;;;;;;4838427;29;20487;-63
2023/05/12 02:03:01;;;;;;;7.25;2.97;;;;;;;;;;4765492;29;20064;-64
2023/05/12 02:05:31;;;;;;;7.57;3.42;;;;;;;;;;4793135;29;20057;-63
2023/05/12 02:08:03;;;;;;;7.10;3.10;;;;;;;;;;4826095;29;20074;-62
2023/05/12 02:10:33;;;;;;;7.72;3.10;;;;;;;;;;4845169;29;20049;-62
2023/05/12 02:13:05;;;;;;;8.02;3.10;;;;;;;;;;4856590;29;20103;-62
2023/05/12 02:15:35;;;;;;;6.05;3.10;;;;;;;;;;4836355;29;20435;-62
2023/05/12 02:18:06;;;;;;;9.40;3.10;;;;;;;;;;4856532;29;20070;-62
2023/05/12 02:20:39;;;;;;;7.00;2.60;;;;;;;;;;4841973;29;20050;-62
2023/05/12 02:23:10;;;;;;;8.07;3.28;;;;;;;;;;4845835;29;20062;-62
2023/05/12 02:25:40;;;;;;;6.60;2.90;;;;;;;;;;4864535;29;20414;-62
2023/05/12 02:28:10;;;;;;;12.02;2.80;;;;;;;;;;4836524;29;20073;-62
2023/05/12 02:30:48;;;;;;;7.10;2.70;;;;;;;;;;4866357;29;20133;-63
2023/05/12 02:33:22;;;;;;;8.57;2.95;;;;;;;;;;4856707;29;21038;-63
2023/05/12 02:35:52;;;;;;;8.07;2.90;;;;;;;;;;4809158;29;20106;-62
2023/05/12 02:38:22;;;;;;;9.18;3.03;;;;;;;;;;4856215;29;20049;-63
2023/05/12 02:40:54;;;;;;;6.40;3.05;;;;;;;;;;4856079;29;20077;-63
2023/05/12 02:43:25;;;;;;;6.43;2.47;;;;;;;;;;4860526;29;20054;-62
2023/05/12 02:45:56;;;;;;;12.25;3.15;;;;;;;;;;4838527;29;20054;-63
2023/05/12 02:48:27;;;;;;;9.95;3.70;;;;;;;;;;4841667;29;20050;-62
2023/05/12 02:50:58;;;;;;;9.25;2.75;;;;;;;;;;4846117;29;20050;-63
2023/05/12 02:53:28;;;;;;;10.25;3.10;;;;;;;;;;4853084;29;20400;-63
2023/05/12 02:55:58;;;;;;;8.90;3.25;;;;;;;;;;4820814;29;20054;-64
2023/05/12 02:58:29;;;;;;;8.45;3.58;;;;;;;;;;4841605;29;20069;-63
2023/05/12 03:01:01;;;;;;;7.78;3.05;;;;;;;;;;4850236;29;20070;-63
2023/05/12 03:03:40;;;;;;;;;;;;;;;;;;4811328;29;20058;-63
2023/05/12 03:06:11;;;;;;;7.55;3.72;;;;;;;;;;4834276;29;19925;-63
2023/05/12 03:08:42;;;;;;;7.18;3.13;;;;;;;;;;4793835;29;20063;-63
2023/05/12 03:11:12;;;;;;;6.80;2.45;;;;;;;;;;4827278;29;20051;-63
2023/05/12 03:13:43;;;;;;;6.47;2.83;;;;;;;;;;4822352;29;20055;-63
2023/05/12 03:16:16;;;;;;;8.18;3.42;;;;;;;;;;4841103;29;20054;-63
2023/05/12 03:18:48;;;;;;;8.23;2.92;;;;;;;;;;4844466;29;20058;-63
2023/05/12 03:21:19;;;;;;;6.82;3.17;;;;;;;;;;4812597;29;20553;-63
2023/05/12 03:23:49;;;;;;;8.80;3.42;;;;;;;;;;4794468;29;20592;-63
2023/05/12 03:26:19;;;;;;;8.15;3.30;;;;;;;;;;4797334;29;20065;-63
2023/05/12 03:28:50;;;;;;;11.32;3.28;;;;;;;;;;4784348;29;20071;-63
2023/05/12 03:31:20;;;;;;;6.65;3.05;;;;;;;;;;4804647;29;20059;-63
2023/05/12 03:33:51;;;;;;;8.18;3.10;;;;;;;;;;4830459;29;20062;-63
2023/05/12 03:36:22;;;;;;;7.45;3.50;;;;;;;;;;4840981;29;20462;-63
2023/05/12 03:38:52;;;;;;;7.32;3.05;;;;;;;;;;4877629;29;20069;-64
2023/05/12 03:41:23;;;;;;;9.10;3.75;;;;;;;;;;4887404;29;20060;-63
2023/05/12 03:43:54;;;;;;;8.43;3.53;;;;;;;;;;4828338;29;20080;-63
2023/05/12 03:46:24;;;;;;;8.73;3.60;;;;;;;;;;4859317;29;20058;-63
2023/05/12 03:48:55;;;;;;;8.50;3.60;;;;;;;;;;4834451;29;20074;-64
2023/05/12 03:51:26;;;;;;;6.78;3.03;;;;;;;;;;4831898;29;20058;-61
2023/05/12 03:53:57;;;;;;;7.45;2.92;;;;;;;;;;4837960;29;20061;-61
2023/05/12 03:56:28;;;;;;;7.57;3.10;;;;;;;;;;4831580;29;20069;-61
2023/05/12 03:58:58;;;;;;;11.40;4.00;;;;;;;;;;4840776;29;20072;-62
2023/05/12 04:01:29;;;;;;;7.00;3.25;;;;;;;;;;4840628;29;20050;-63
2023/05/12 04:04:01;;;;;;;13.23;4.32;;;;;;;;;;4854871;29;20065;-62
2023/05/12 04:06:32;;;;;;;10.90;3.53;;;;;;;;;;4840669;29;20054;-62
2023/05/12 04:09:04;;;;;;;6.85;3.25;;;;;;;;;;4821918;29;20054;-61
2023/05/12 04:11:36;;;;;;;7.13;3.28;;;;;;;;;;4830870;29;20053;-61
2023/05/12 04:14:07;;;;;;;7.10;3.50;;;;;;;;;;4821914;29;20063;-64
2023/05/12 04:16:39;;;;;;;6.47;2.80;;;;;;;;;;4822385;29;20067;-62
2023/05/12 04:19:09;;;;;;;6.70;2.95;;;;;;;;;;4807255;29;20058;-62
2023/05/12 04:21:40;;;;;;;7.90;2.88;;;;;;;;;;4752885;29;20047;-62
2023/05/12 04:24:11;;;;;;;7.70;2.75;;;;;;;;;;4814099;29;20446;-62
2023/05/12 04:26:41;;;;;;;6.75;3.10;;;;;;;;;;4837280;29;20503;-63
2023/05/12 04:29:12;;;;;;;7.28;3.38;;;;;;;;;;4840211;29;20061;-62
2023/05/12 04:31:42;;;;;;;7.45;3.63;;;;;;;;;;4803706;29;20544;-62
2023/05/12 04:34:14;;;;;;;11.38;4.30;;;;;;;;;;4818107;29;20050;-62
2023/05/12 04:36:45;;;;;;;7.65;3.55;;;;;;;;;;4821624;29;20054;-61
2023/05/12 04:39:16;;;;;;;9.63;3.13;;;;;;;;;;4814640;29;20503;-62
2023/05/12 04:41:46;;;;;;;5.25;2.67;;;;;;;;;;4839561;29;20058;-62
2023/05/12 04:44:18;;;;;;;8.48;3.72;;;;;;;;;;4839670;29;20050;-63
2023/05/12 04:46:52;;;;;;;9.10;3.05;;;;;;;;;;4848295;29;20073;-62
2023/05/12 04:49:23;;;;;;;6.88;3.10;;;;;;;;;;4857957;29;20066;-62
2023/05/12 04:51:53;;;;;;;6.03;2.75;;;;;;;;;;4858128;29;20453;-62
2023/05/12 04:54:23;;;;;;;7.32;3.20;;;;;;;;;;4839676;29;20569;-62
2023/05/12 04:56:54;;;;;;;7.13;3.10;;;;;;;;;;4854390;29;20061;-61
2023/05/12 04:59:26;;;;;;;9.95;3.03;;;;;;;;;;4857798;29;20060;-62
2023/05/12 05:01:56;;;;;;;6.07;3.03;;;;;;;;;;4827398;29;20064;-62
2023/05/12 05:04:27;;;;;;;6.85;2.83;;;;;;;;;;4858100;29;20084;-62
2023/05/12 05:06:58;;;;;;;11.10;3.45;;;;;;;;;;4835450;29;20090;-62
2023/05/12 05:09:30;;;;;;;8.45;3.35;;;;;;;;;;4847452;29;20058;-62
2023/05/12 05:12:02;;;;;;;8.27;3.30;;;;;;;;;;4828518;29;20104;-62
2023/05/12 05:14:33;;;;;;;6.90;3.88;;;;;;;;;;4829363;29;20062;-62
2023/05/12 05:17:05;;;;;;;7.95;3.60;;;;;;;;;;4811030;29;20073;-62
2023/05/12 05:19:37;;;;;;;6.57;3.10;;;;;;;;;;4800668;29;20059;-62
2023/05/12 05:22:26;;;;;;;11.48;3.38;;;;;;;;;;4763005;29;20063;-62
2023/05/12 05:24:56;;;;;;;10.05;3.08;;;;;;;;;;4779100;29;20060;-62
2023/05/12 05:27:26;;;;;;;10.88;3.20;;;;;;;;;;4781496;29;20058;-62
2023/05/12 05:29:58;;;;;;;;;;;;;;;;;;4806719;29;20539;-62
2023/05/12 05:32:29;;;;;;;7.82;3.30;;;;;;;;;;4802393;29;19925;-62
2023/05/12 05:35:00;;;;;;;7.03;2.95;;;;;;;;;;4814637;29;20054;-62
2023/05/12 05:37:34;;;;;;;6.63;2.83;;;;;;;;;;4814757;29;20061;-63
2023/05/12 05:40:05;;;;;;;11.20;3.88;;;;;;;;;;4838856;29;20065;-62
2023/05/12 05:42:35;;;;;;;7.80;2.88;;;;;;;;;;4853862;29;20064;-62
2023/05/12 05:45:06;;;;;;;9.77;3.22;;;;;;;;;;4821603;29;20072;-62
2023/05/12 05:47:36;;;;;;;9.52;3.17;;;;;;;;;;4844887;29;20046;-63
2023/05/12 05:50:08;;;;;;;8.20;2.78;;;;;;;;;;4805429;29;20054;-62
2023/05/12 05:52:41;;;;;;;13.30;3.20;;;;;;;;;;4785006;29;20054;-63
2023/05/12 05:55:11;;;;;;;10.70;3.70;;;;;;;;;;4820609;29;20054;-62
2023/05/12 05:57:42;;;;;;;6.10;3.03;;;;;;;;;;4796658;29;20516;-62
2023/05/12 06:00:13;;;;;;;8.23;3.10;;;;;;;;;;4811779;29;20066;-62
2023/05/12 06:02:47;;;;;;;6.32;2.50;;;;;;;;;;4838130;29;20415;-62
2023/05/12 06:05:20;;;;;;;6.88;3.03;;;;;;;;;;4834543;29;20082;-62
2023/05/12 06:07:50;;;;;;;5.30;2.65;;;;;;;;;;4816171;29;20065;-63
2023/05/12 06:10:21;;;;;;;7.88;3.28;;;;;;;;;;4828510;29;20550;-62
2023/05/12 06:12:51;;;;;;;6.15;3.38;;;;;;;;;;4820586;29;20063;-63
2023/05/12 06:15:22;;;;;;;5.90;2.90;;;;;;;;;;4828333;29;20047;-62
2023/05/12 06:17:52;;;;;;;8.00;3.20;;;;;;;;;;4810529;29;20070;-62
2023/05/12 06:20:23;;;;;;;6.00;2.40;;;;;;;;;;4771630;29;20065;-62
2023/05/12 06:22:54;;;;;;;6.25;2.75;;;;;;;;;;4801752;29;20054;-62
2023/05/12 06:25:24;;;;;;;9.07;2.75;;;;;;;;;;4811943;29;20062;-62
2023/05/12 06:27:54;;;;;;;7.07;2.90;;;;;;;;;;4810529;29;20220;-62
2023/05/12 06:30:25;;;;;;;6.38;2.72;;;;;;;;;;4849671;29;20058;-62
2023/05/12 06:32:56;;;;;;;7.60;3.28;;;;;;;;;;4817947;29;20054;-63
2023/05/12 06:35:26;;;;;;;5.90;2.72;;;;;;;;;;4840483;29;20065;-62
2023/05/12 06:37:57;;;;;;;7.65;3.15;;;;;;;;;;4807892;29;20074;-62
2023/05/12 06:40:27;;;;;;;7.30;3.88;;;;;;;;;;4807758;29;20212;-65
2023/05/12 06:42:58;;;;;;;8.55;3.40;;;;;;;;;;4847381;29;20062;-62
2023/05/12 06:45:29;;;;;;;8.68;3.72;;;;;;;;;;4865897;29;20061;-62
2023/05/12 06:48:02;;;;;;;7.40;3.03;;;;;;;;;;4845003;29;20061;-62
2023/05/12 06:50:32;;;;;;;6.50;3.10;;;;;;;;;;4874772;29;20556;-62
2023/05/12 06:53:05;;;;;;;6.68;3.15;;;;;;;;;;4844422;29;20061;-62
2023/05/12 06:55:35;;;;;;;7.95;2.92;;;;;;;;;;4905668;29;20057;-62
2023/05/12 06:58:05;;;;;;;7.38;2.97;;;;;;;;;;4875363;29;20057;-62
2023/05/12 07:00:36;;;;;;;11.40;3.28;;;;;;;;;;4866545;29;20076;-62
2023/05/12 07:03:08;;;;;;;8.85;2.90;;;;;;;;;;4906141;29;20510;-62
2023/05/12 07:05:40;;;;;;;8.45;3.20;;;;;;;;;;4875171;29;20069;-62
2023/05/12 07:08:11;;;;;;;7.72;3.05;;;;;;;;;;4929618;29;20404;-62
2023/05/12 07:10:41;;;;;;;5.43;2.92;;;;;;;;;;4931782;29;20058;-62
2023/05/12 07:13:12;;;;;;;8.70;3.10;;;;;;;;;;4952323;28;20059;-62
2023/05/12 07:15:43;;;;;;;8.63;3.13;;;;;;;;;;4970050;28;20051;-63
2023/05/12 07:18:13;;;;;;;8.75;3.88;;;;;;;;;;4970060;28;20066;-62
2023/05/12 07:20:45;;;;;;;7.15;2.95;;;;;;;;;;4954105;28;20062;-63
2023/05/12 07:23:15;;;;;;;8.50;3.60;;;;;;;;;;4969846;28;20530;-62
2023/05/12 07:25:46;;;;;;;6.88;3.40;;;;;;;;;;4923442;28;20466;-62
2023/05/12 07:28:16;;;;;;;6.63;3.35;;;;;;;;;;4969909;28;20051;-62
2023/05/12 07:30:46;;;;;;;7.70;3.10;;;;;;;;;;4891121;28;20065;-62
2023/05/12 07:33:17;;;;;;;8.65;3.50;;;;;;;;;;4972594;28;20047;-62
2023/05/12 07:35:47;;;;;;;10.48;3.42;;;;;;;;;;4973584;28;20054;-62
2023/05/12 07:38:18;;;;;;;7.05;2.83;;;;;;;;;;4996326;28;20061;-62
2023/05/12 07:40:49;;;;;;;10.00;3.20;;;;;;;;;;5014854;28;20489;-62
2023/05/12 07:43:19;;;;;;;6.45;3.03;;;;;;;;;;5014849;28;20046;-62
2023/05/12 07:45:50;;;;;;;4.55;2.33;;;;;;;;;;5014812;28;20049;-62
2023/05/12 07:48:21;;;;;;;7.68;2.88;;;;;;;;;;4948921;28;20049;-62
2023/05/12 07:50:51;;;;;;;8.60;3.13;;;;;;;;;;4964192;28;20065;-62
2023/05/12 07:53:22;;;;;;;5.85;3.08;;;;;;;;;;5014741;28;20053;-62
2023/05/12 07:55:53;;;;;;;5.53;2.88;;;;;;;;;;5014566;28;20050;-62
2023/05/12 07:58:23;;;;;;;10.48;3.10;;;;;;;;;;5014596;28;20517;-62
2023/05/12 08:00:53;;;;;;;6.07;2.78;;;;;;;;;;4964023;28;20599;-62
2023/05/12 08:03:24;;;;;;;5.75;2.65;;;;;;;;;;5014332;28;20050;-62
2023/05/12 08:05:54;;;;;;;5.68;2.92;;;;;;;;;;4963929;28;20529;-62
2023/05/12 08:08:25;;;;;;;5.60;2.65;;;;;;;;;;4995680;28;20408;-62
2023/05/12 08:10:56;;;;;;;8.02;3.83;;;;;;;;;;5014313;28;20057;-62
2023/05/12 08:13:26;;;;;;;8.40;3.00;;;;;;;;;;5014190;28;20053;-62
2023/05/12 08:15:57;;;;;;;6.93;3.10;;;;;;;;;;4979623;28;20053;-62
2023/05/12 08:18:27;;;;;;;6.63;2.75;;;;;;;;;;5013974;28;20053;-62
2023/05/12 08:20:58;;;;;;;4.95;2.50;;;;;;;;;;4979634;28;20057;-62
2023/05/12 08:23:29;;;;;;;5.25;2.53;;;;;;;;;;4979537;28;20053;-62
2023/05/12 08:25:59;;;;;;;5.93;2.40;;;;;;;;;;5014162;28;20056;-61
2023/05/12 08:28:30;;;;;;;4.65;2.40;;;;;;;;;;4995494;28;20057;-62
2023/05/12 08:31:01;;;;;;;5.90;2.65;;;;;;;;;;5014231;28;20394;-62
2023/05/12 08:33:36;;;;;;;7.32;2.83;;;;;;;;;;5013739;28;20042;-62
2023/05/12 08:36:06;;;;;;;5.13;2.65;;;;;;;;;;5013929;28;20501;-62
2023/05/12 08:38:36;;;;;;;7.10;2.90;;;;;;;;;;4995476;28;20050;-62
2023/05/12 08:41:18;;;;;;;5.45;2.97;;;;;;;;;;4979830;28;20057;-63
2023/05/12 08:43:51;;;;;;;6.22;2.90;;;;;;;;;;5012580;28;20394;-62
2023/05/12 08:46:22;;;;;;;8.50;2.90;;;;;;;;;;4995784;28;20073;-62
2023/05/12 08:48:54;;;;;;;6.57;2.80;;;;;;;;;;4979203;28;20577;-62
2023/05/12 08:51:27;;;;;;;5.30;2.83;;;;;;;;;;4979003;28;20418;-63
2023/05/12 08:53:57;;;;;;;4.28;2.42;;;;;;;;;;4978570;28;20065;-62
2023/05/12 08:56:28;;;;;;;5.35;2.75;;;;;;;;;;4978506;28;20505;-62
2023/05/12 08:59:05;;;;;;;6.50;3.13;;;;;;;;;;5013407;28;20042;-62
2023/05/12 09:01:36;;;;;;;6.13;2.67;;;;;;;;;;5013206;28;20042;-62
2023/05/12 09:04:06;;;;;;;7.13;2.50;;;;;;;;;;4963839;28;20058;-62
2023/05/12 09:06:36;;;;;;;6.13;2.70;;;;;;;;;;4962676;28;20065;-63
2023/05/12 09:09:07;;;;;;;5.90;3.00;;;;;;;;;;5013050;28;20049;-62
2023/05/12 09:11:37;;;;;;;7.97;2.95;;;;;;;;;;4963362;28;20062;-62
2023/05/12 09:14:11;;;;;;;6.97;2.72;;;;;;;;;;5013180;28;20046;-63
2023/05/12 09:16:45;;;;;;;7.10;2.50;;;;;;;;;;5013185;28;20045;-62
2023/05/12 09:19:20;;;;;;;5.80;2.88;;;;;;;;;;5012971;28;20045;-63
2023/05/12 09:21:50;;;;;;;8.50;2.60;;;;;;;;;;5012974;28;20044;-62
2023/05/12 09:24:21;;;;;;;6.53;2.88;;;;;;;;;;4933567;28;20049;-63
2023/05/12 09:26:54;;;;;;;4.88;2.63;;;;;;;;;;5032565;28;20049;-62
2023/05/12 09:29:25;;;;;;;5.53;2.53;;;;;;;;;;4981998;28;20057;-62
2023/05/12 09:32:03;;;;;;;9.13;2.80;;;;;;;;;;4997597;28;20052;-63
2023/05/12 09:34:37;;;;;;;7.20;3.13;;;;;;;;;;4997327;28;20064;-62
2023/05/12 09:37:07;;;;;;;5.85;2.50;;;;;;;;;;5032340;28;20038;-63
2023/05/12 09:39:37;;;;;;;7.22;2.42;;;;;;;;;;4993984;28;20049;-64
2023/05/12 09:42:14;;;;;;;6.50;2.80;;;;;;;;;;5029294;28;20374;-63
2023/05/12 09:44:45;;;;;;;6.53;2.72;;;;;;;;;;4964733;28;20155;-63
2023/05/12 09:47:16;;;;;;;6.65;2.63;;;;;;;;;;5014753;28;20044;-63
2023/05/12 09:49:51;;;;;;;7.65;2.95;;;;;;;;;;5031918;28;20052;-63
2023/05/12 09:52:21;;;;;;;6.28;2.95;;;;;;;;;;5032136;28;20041;-66
2023/05/12 09:54:52;;;;;;;7.00;3.00;;;;;;;;;;5031629;28;20056;-62
2023/05/12 09:57:25;;;;;;;6.55;3.03;;;;;;;;;;5031753;28;20045;-62
2023/05/12 09:59:55;;;;;;;5.80;3.00;;;;;;;;;;4973817;28;20057;-62
2023/05/12 10:02:26;;;;;;;5.80;2.83;;;;;;;;;;4941355;28;20061;-62
2023/05/12 10:05:01;;;;;;;6.25;2.80;;;;;;;;;;4989848;28;20078;-62
2023/05/12 10:07:32;;;;;;;8.60;3.63;;;;;;;;;;4989792;28;20054;-63
2023/05/12 10:10:06;;;;;;;9.90;3.53;;;;;;;;;;4990038;28;20406;-62
2023/05/12 10:12:37;;;;;;;9.23;3.22;;;;;;;;;;4989785;28;20065;-62
2023/05/12 10:15:10;;;;;;;8.98;3.47;;;;;;;;;;4973529;28;20050;-62
2023/05/12 10:17:41;;;;;;;8.15;3.45;;;;;;;;;;4973389;28;20050;-62
2023/05/12 10:20:12;;;;;;;12.13;3.92;;;;;;;;;;4989719;28;20046;-62
2023/05/12 10:22:44;;;;;;;6.70;3.08;;;;;;;;;;4989523;28;20053;-62
2023/05/12 10:25:16;;;;;;;13.43;3.38;;;;;;;;;;4957424;28;20054;-63
2023/05/12 10:27:49;;;;;;;8.18;3.63;;;;;;;;;;4950628;29;20051;-63
2023/05/12 10:30:19;;;;;;;8.45;3.42;;;;;;;;;;4950878;29;20070;-62
2023/05/12 10:32:50;;;;;;;7.40;3.63;;;;;;;;;;4934772;29;20055;-63
2023/05/12 10:35:31;;;;;;;7.10;3.15;;;;;;;;;;4951160;29;20058;-62
2023/05/12 10:38:06;;;;;;;8.05;3.58;;;;;;;;;;4894998;29;20056;-62
2023/05/12 10:40:36;;;;;;;8.25;3.47;;;;;;;;;;4899896;29;20516;-63
2023/05/12 10:43:07;;;;;;;7.20;3.67;;;;;;;;;;4893479;29;20056;-63
2023/05/12 10:45:37;;;;;;;8.40;3.58;;;;;;;;;;4893678;29;20087;-62
2023/05/12 10:48:08;;;;;;;9.45;3.65;;;;;;;;;;4893560;29;20053;-63
2023/05/12 10:50:52;;;;;;;10.13;3.90;;;;;;;;;;4893798;29;20060;-63
2023/05/12 10:53:33;;;;;;;11.50;5.18;;;;;;;;;;4893483;29;20056;-63
2023/05/12 10:56:23;;;;;;;11.77;5.00;;;;;;;;;;4847424;29;20505;-63
2023/05/12 10:59:16;;;;;;;11.18;5.18;;;;;;;;;;4893724;29;20071;-63
2023/05/12 11:02:15;;;;;;;11.30;5.35;;;;;;;;;;4908824;29;20069;-63
2023/05/12 11:04:56;;;;;;;12.00;5.55;;;;;;;;;;4906543;29;20059;-63
2023/05/12 11:07:31;;;;;;;18.48;8.25;;;;;;;;;;4952038;28;20567;-63
2023/05/12 11:10:04;;;;;;;18.70;8.65;;;;;;;;;;4954407;29;20066;-63
2023/05/12 11:12:36;;;;;;;21.70;9.35;;;;;;;;;;4954456;29;20054;-63
2023/05/12 11:15:06;;;;;;;16.08;7.22;;;;;;;;;;4965527;28;20525;-63
2023/05/12 11:17:40;;;;;;;15.40;7.57;;;;;;;;;;5035016;28;20489;-63
2023/05/12 11:20:22;;;;;;;14.70;7.15;;;;;;;;;;4992760;28;20050;-63
2023/05/12 11:22:53;;;;;;;9.52;5.20;;;;;;;;;;4960406;28;20081;-63
2023/05/12 11:25:29;;;;;;;9.18;4.55;;;;;;;;;;4992735;28;20100;-64
2023/05/12 11:28:01;;;;;;;9.02;4.57;;;;;;;;;;4960706;28;20081;-63
2023/05/12 11:30:31;;;;;;;9.00;4.30;;;;;;;;;;4992823;28;20050;-63
2023/05/12 11:33:03;;;;;;;7.63;4.22;;;;;;;;;;4976430;28;20479;-63
2023/05/12 11:35:33;;;;;;;9.75;4.55;;;;;;;;;;4992771;28;20047;-63
2023/05/12 11:38:15;;;;;;;9.13;4.55;;;;;;;;;;4992739;28;20077;-63
2023/05/12 11:40:46;;;;;;;8.23;4.22;;;;;;;;;;4992744;28;20046;-62
2023/05/12 11:43:20;;;;;;;12.77;4.28;;;;;;;;;;4992816;28;20057;-63
2023/05/12 11:45:51;;;;;;;8.55;4.22;;;;;;;;;;4992444;28;20054;-64
2023/05/12 11:48:21;;;;;;;7.90;4.30;;;;;;;;;;4976573;28;20062;-63
2023/05/12 11:50:52;;;;;;;10.57;4.25;;;;;;;;;;4976555;28;20065;-63
2023/05/12 11:53:23;;;;;;;6.68;3.35;;;;;;;;;;4976383;28;20058;-63
2023/05/12 11:55:57;;;;;;;6.97;3.83;;;;;;;;;;4992643;28;20057;-63
2023/05/12 11:58:29;;;;;;;;;;;;;;;;;;5024509;28;20064;-63
2023/05/12 12:01:10;;;;;;;15.30;4.15;;;;;;;;;;4998924;28;20337;-63
2023/05/12 12:03:49;;;;;;;11.52;5.07;;;;;;;;;;4998913;28;20054;-63
2023/05/12 12:06:21;;;;;;;10.20;5.43;;;;;;;;;;4950182;28;20585;-63
2023/05/12 12:08:59;;;;;;;15.88;6.20;;;;;;;;;;4999148;28;20061;-63
2023/05/12 12:11:30;;;;;;;11.77;5.78;;;;;;;;;;4999118;28;20549;-63
2023/05/12 12:14:02;;;;;;;9.95;5.18;;;;;;;;;;5033723;28;20046;-63
2023/05/12 12:16:32;;;;;;;9.27;4.95;;;;;;;;;;5034006;28;20045;-64
2023/05/12 12:19:04;;;;;;;12.70;5.15;;;;;;;;;;5032505;28;20049;-64
2023/05/12 12:21:35;;;;;;;10.38;5.95;;;;;;;;;;5033721;28;20049;-64
2023/05/12 12:24:05;;;;;;;35.88;16.85;;;;;;;;;;5033320;28;20412;-63
2023/05/12 12:26:35;;;;;;;11.10;5.20;;;;;;;;;;4998875;28;20409;-63
2023/05/12 12:29:07;;;;;;;65.95;27.67;;;;;;;;;;5033363;28;20045;-63
2023/05/12 12:31:37;;;;;;;12.80;6.88;;;;;;;;;;4999505;28;20387;-63
2023/05/12 12:34:08;;;;;;;11.50;3.78;;;;;;;;;;5033327;28;20405;-64
2023/05/12 12:36:38;;;;;;;9.45;3.92;;;;;;;;;;5033410;28;20041;-63
2023/05/12 12:39:09;;;;;;;9.82;4.32;;;;;;;;;;5033423;28;20041;-63
2023/05/12 12:41:39;;;;;;;10.77;4.22;;;;;;;;;;4998329;28;20053;-63
2023/05/12 12:44:10;;;;;;;14.82;6.03;;;;;;;;;;4983612;28;20049;-63
2023/05/12 12:46:40;;;;;;;11.73;4.05;;;;;;;;;;4982156;28;20052;-64
2023/05/12 12:49:11;;;;;;;11.23;4.95;;;;;;;;;;4990915;28;20043;-63
2023/05/12 12:51:41;;;;;;;8.25;4.68;;;;;;;;;;4975738;28;20054;-63
2023/05/12 12:54:14;;;;;;;10.63;5.18;;;;;;;;;;4991241;28;20133;-63
2023/05/12 12:56:45;;;;;;;11.35;4.80;;;;;;;;;;4991411;28;20050;-63
2023/05/12 12:59:15;;;;;;;7.53;4.07;;;;;;;;;;4991147;28;20053;-63
2023/05/12 13:01:47;;;;;;;8.80;3.63;;;;;;;;;;4991274;28;20066;-64
2023/05/12 13:04:21;;;;;;;9.52;4.75;;;;;;;;;;4974423;28;20050;-63
2023/05/12 13:06:51;;;;;;;11.93;4.85;;;;;;;;;;4991059;28;20434;-63
2023/05/12 13:09:22;;;;;;;10.63;5.05;;;;;;;;;;4991092;28;20053;-63
2023/05/12 13:11:52;;;;;;;9.63;4.50;;;;;;;;;;4991040;28;20054;-64
2023/05/12 13:14:23;;;;;;;12.50;5.80;;;;;;;;;;4943037;28;20063;-64
2023/05/12 13:16:54;;;;;;;15.07;7.07;;;;;;;;;;4991137;28;20061;-63
2023/05/12 13:19:24;;;;;;;11.68;5.57;;;;;;;;;;4958732;28;20051;-65
2023/05/12 13:21:54;;;;;;;9.52;4.47;;;;;;;;;;4958699;28;20753;-63
2023/05/12 13:24:24;;;;;;;10.88;4.63;;;;;;;;;;4911526;28;20062;-63
2023/05/12 13:26:55;;;;;;;10.85;5.85;;;;;;;;;;4963304;28;20068;-64
2023/05/12 13:29:25;;;;;;;8.65;4.57;;;;;;;;;;5032328;28;20428;-64
2023/05/12 13:31:56;;;;;;;7.57;3.92;;;;;;;;;;4964996;28;20053;-63
2023/05/12 13:34:26;;;;;;;6.75;4.47;;;;;;;;;;5014122;28;20053;-63
2023/05/12 13:36:56;;;;;;;11.52;4.63;;;;;;;;;;5032001;28;20041;-64
2023/05/12 13:39:27;;;;;;;10.07;5.32;;;;;;;;;;5032303;28;20477;-63
2023/05/12 13:41:57;;;;;;;9.25;4.75;;;;;;;;;;5032133;28;20350;-63
2023/05/12 13:44:28;;;;;;;9.48;4.60;;;;;;;;;;5031982;28;20064;-63
2023/05/12 13:46:58;;;;;;;10.25;3.90;;;;;;;;;;4997143;28;20053;-64
2023/05/12 13:49:29;;;;;;;6.05;2.83;;;;;;;;;;5031999;28;20041;-64
2023/05/12 13:51:59;;;;;;;7.22;2.80;;;;;;;;;;4949420;28;20497;-63
2023/05/12 13:54:30;;;;;;;4.05;1.77;;;;;;;;;;4990136;28;20057;-63
2023/05/12 13:57:02;;;;;;;3.88;1.60;;;;;;;;;;4990015;28;20066;-64
2023/05/12 13:59:32;;;;;;;3.47;1.48;;;;;;;;;;4990055;28;20537;-63
2023/05/12 14:02:03;;;;;;;6.40;2.10;;;;;;;;;;4958292;28;20086;-64
2023/05/12 14:04:34;;;;;;;4.38;1.67;;;;;;;;;;4989922;28;20046;-63
2023/05/12 14:07:04;;;;;;;4.95;1.60;;;;;;;;;;4989758;28;20426;-63
2023/05/12 14:09:36;;;;;;;4.55;1.30;;;;;;;;;;4989966;28;20046;-63
2023/05/12 14:12:09;;;;;;;2.90;1.25;;;;;;;;;;4927361;28;20050;-63
2023/05/12 14:14:39;;;;;;;6.15;1.63;;;;;;;;;;4942123;28;20050;-63
2023/05/12 14:17:09;;;;;;;5.30;1.95;;;;;;;;;;4957502;28;20054;-63
2023/05/12 14:19:40;;;;;;;4.30;1.20;;;;;;;;;;4989767;28;20054;-63
2023/05/12 14:22:10;;;;;;;3.05;1.40;;;;;;;;;;4989566;28;20073;-63
2023/05/12 14:24:54;;;;;;;5.10;1.42;;;;;;;;;;4989616;28;20521;-63
2023/05/12 14:27:25;;;;;;;4.32;1.73;;;;;;;;;;4941234;28;20069;-63
2023/05/12 14:29:56;;;;;;;2.53;1.42;;;;;;;;;;4973337;28;20506;-63
2023/05/12 14:32:26;;;;;;;4.05;1.17;;;;;;;;;;4981768;28;20516;-63
2023/05/12 14:34:56;;;;;;;3.58;1.48;;;;;;;;;;5031323;28;20056;-64
2023/05/12 14:37:26;;;;;;;4.72;1.20;;;;;;;;;;4947961;28;20054;-63
2023/05/12 14:39:57;;;;;;;3.35;1.25;;;;;;;;;;5031354;28;20041;-63
2023/05/12 14:42:28;;;;;;;5.00;1.55;;;;;;;;;;4964766;28;20060;-64
2023/05/12 14:44:58;;;;;;;3.92;1.50;;;;;;;;;;5031376;28;20049;-63
2023/05/12 14:47:29;;;;;;;2.65;1.10;;;;;;;;;;5031024;28;20037;-64
2023/05/12 14:49:59;;;;;;;3.50;1.30;;;;;;;;;;5031068;28;20048;-64
2023/05/12 14:52:32;;;;;;;2.33;0.85;;;;;;;;;;5031060;28;20053;-64
2023/05/12 14:55:10;;;;;;;3.10;0.90;;;;;;;;;;4963761;28;20056;-63
2023/05/12 14:57:41;;;;;;;;;;;;;;;;;;5031459;28;20508;-63
2023/05/12 15:00:13;;;;;;;2.58;0.90;;;;;;;;;;5031129;28;19925;-63
2023/05/12 15:02:44;;;;;;;7.07;1.10;;;;;;;;;;4979666;28;20481;-63
2023/05/12 15:05:15;;;;;;;2.03;1.00;;;;;;;;;;4996146;28;20045;-64
2023/05/12 15:07:45;;;;;;;2.90;0.65;;;;;;;;;;5030718;28;20057;-62
2023/05/12 15:10:15;;;;;;;2.40;0.90;;;;;;;;;;4995967;28;20048;-63